Time;durP1;ratioP1;P1;durP2;ratioP2;P2;SDS_P1;SDS_P2;PMS_P1;PMS_P2;Temp;Humidity;BMP_temperature;BMP_pressure;BME280_temperature;BME280_humidity;BME280_pressure;Samples;Min_cycle;Max_cycle;Signal;HPM_P1;HPM_P2
2023/08/28 00:02:19;;;;;;;0.97;0.97;;;;;13.80;95615.00;;;;5135373;27;20206;-60
2023/08/28 00:04:48;;;;;;;0.40;0.40;;;;;13.60;95615.00;;;;5135480;27;20602;-61
2023/08/28 00:07:15;;;;;;;0.80;0.80;;;;;13.60;95611.00;;;;5135181;27;20208;-60
2023/08/28 00:09:43;;;;;;;0.70;0.70;;;;;13.60;95605.00;;;;5134851;27;20266;-59
2023/08/28 00:12:10;;;;;;;0.70;0.70;;;;;13.50;95605.00;;;;5135707;27;20300;-60
2023/08/28 00:14:37;;;;;;;0.67;0.67;;;;;13.50;95604.00;;;;5134723;27;20579;-60
2023/08/28 00:17:05;;;;;;;0.43;0.43;;;;;13.40;95606.00;;;;5133479;27;20209;-60
2023/08/28 00:19:33;;;;;;;0.87;0.87;;;;;13.30;95611.00;;;;5134755;27;20217;-60
2023/08/28 00:22:02;;;;;;;0.77;0.77;;;;;13.30;95608.00;;;;5134913;27;20201;-60
2023/08/28 00:24:29;;;;;;;0.97;0.97;;;;;13.30;95606.00;;;;5134754;27;20599;-60
2023/08/28 00:26:57;;;;;;;1.40;0.70;;;;;13.30;95575.00;;;;5134802;27;20212;-60
2023/08/28 00:29:24;;;;;;;0.70;0.70;;;;;13.40;95583.00;;;;5134667;27;20190;-59
2023/08/28 00:31:51;;;;;;;0.80;0.80;;;;;13.40;95540.00;;;;5134489;27;20220;-59
2023/08/28 00:34:19;;;;;;;0.60;0.60;;;;;13.40;95602.00;;;;5134424;27;20200;-60
2023/08/28 00:36:46;;;;;;;1.17;1.07;;;;;13.50;95604.00;;;;5134453;27;20202;-60
2023/08/28 00:39:15;;;;;;;0.80;0.80;;;;;13.50;95605.00;;;;5134518;27;20600;-60
2023/08/28 00:41:43;;;;;;;0.87;0.87;;;;;13.50;95619.00;;;;5134447;27;20246;-59
2023/08/28 00:44:10;;;;;;;0.60;0.60;;;;;13.40;95624.00;;;;5134569;27;20281;-59
2023/08/28 00:46:38;;;;;;;0.73;0.73;;;;;13.40;95644.00;;;;5134559;27;20217;-59
2023/08/28 00:49:05;;;;;;;0.93;0.93;;;;;13.40;95633.00;;;;5134388;27;20197;-59
2023/08/28 00:51:33;;;;;;;0.70;0.70;;;;;13.30;95623.00;;;;5134180;27;20204;-60
2023/08/28 00:54:03;;;;;;;0.70;0.70;;;;;13.30;95618.00;;;;5134061;27;20189;-60
2023/08/28 00:56:32;;;;;;;0.60;0.60;;;;;13.40;95604.00;;;;5134132;27;20221;-60
2023/08/28 00:58:59;;;;;;;0.67;0.67;;;;;13.40;95604.00;;;;5134464;27;20713;-60
2023/08/28 01:01:26;;;;;;;0.50;0.50;;;;;13.30;95605.00;;;;5134037;27;20652;-60
2023/08/28 01:03:54;;;;;;;1.13;1.13;;;;;13.30;95600.00;;;;5132882;27;20209;-59
2023/08/28 01:06:30;;;;;;;0.80;0.80;;;;;13.20;95592.00;;;;5134586;28;20258;-60
2023/08/28 01:09:04;;;;;;;7.03;1.13;;;;;13.20;95612.00;;;;5134284;28;20174;-60
2023/08/28 01:11:37;;;;;;;1.03;1.03;;;;;13.20;95609.00;;;;5134742;28;20181;-60
2023/08/28 01:14:12;;;;;;;1.03;1.03;;;;;13.30;95605.00;;;;5134437;28;20182;-60
2023/08/28 01:16:42;;;;;;;0.60;0.60;;;;;13.30;95620.00;;;;5134042;28;20220;-60
2023/08/28 01:19:25;;;;;;;0.60;0.60;;;;;13.20;95627.00;;;;5134294;28;20266;-60
2023/08/28 01:21:59;;;;;;;0.60;0.60;;;;;13.10;95617.00;;;;5134148;28;20184;-59
2023/08/28 01:24:28;;;;;;;0.67;0.67;;;;;13.20;95630.00;;;;5134239;28;20612;-60
2023/08/28 01:26:57;;;;;;;0.50;0.50;;;;;13.20;95623.00;;;;5133916;28;20212;-60
2023/08/28 01:29:24;;;;;;;0.77;0.77;;;;;13.00;95624.00;;;;5133878;28;20197;-60
2023/08/28 01:31:51;;;;;;;0.80;0.80;;;;;13.10;95621.00;;;;5133755;28;20196;-60
2023/08/28 01:34:19;;;;;;;0.70;0.70;;;;;13.00;95621.00;;;;5133777;28;20200;-60
2023/08/28 01:36:52;;;;;;;0.70;0.70;;;;;13.10;95623.00;;;;5133718;28;20328;-60
2023/08/28 01:39:26;;;;;;;0.50;0.50;;;;;13.00;95603.00;;;;5134035;28;20617;-60
2023/08/28 01:41:56;;;;;;;0.70;0.70;;;;;13.10;95611.00;;;;5134041;28;20185;-59
2023/08/28 01:44:25;;;;;;;0.70;0.70;;;;;13.10;95617.00;;;;5133811;28;20633;-60
2023/08/28 01:46:52;;;;;;;0.73;0.73;;;;;13.20;95609.00;;;;5133819;28;20217;-60
2023/08/28 01:49:20;;;;;;;0.60;0.60;;;;;13.10;95613.00;;;;5133785;28;20223;-61
2023/08/28 01:51:47;;;;;;;0.60;0.60;;;;;13.20;95618.00;;;;5133571;28;20197;-59
2023/08/28 01:54:14;;;;;;;0.80;0.80;;;;;13.20;95602.00;;;;5133828;28;20196;-60
2023/08/28 01:56:42;;;;;;;0.60;0.60;;;;;13.20;95608.00;;;;5133387;28;20236;-59
2023/08/28 01:59:10;;;;;;;0.70;0.70;;;;;13.20;95617.00;;;;5133537;28;20197;-60
2023/08/28 02:01:38;;;;;;;0.50;0.50;;;;;13.10;95614.00;;;;5133432;28;20200;-60
2023/08/28 02:04:06;;;;;;;0.53;0.53;;;;;13.10;95611.00;;;;5133450;28;20193;-59
2023/08/28 02:06:33;;;;;;;0.50;0.50;;;;;13.10;95607.00;;;;5135252;27;20209;-59
2023/08/28 02:09:01;;;;;;;0.60;0.60;;;;;13.20;95587.00;;;;5137395;27;20190;-59
2023/08/28 02:11:29;;;;;;;0.67;0.67;;;;;13.00;95580.00;;;;5136207;27;20720;-60
2023/08/28 02:13:56;;;;;;;0.80;0.80;;;;;13.00;95578.00;;;;5137372;27;20552;-59
2023/08/28 02:16:25;;;;;;;0.50;0.50;;;;;13.00;95568.00;;;;5137268;27;20225;-60
2023/08/28 02:18:53;;;;;;;0.60;0.60;;;;;13.00;95562.00;;;;5136976;27;20247;-60
2023/08/28 02:21:20;;;;;;;0.70;0.70;;;;;12.90;95557.00;;;;5137000;27;20189;-60
2023/08/28 02:23:47;;;;;;;0.50;0.50;;;;;12.90;95556.00;;;;5137153;27;20683;-60
2023/08/28 02:26:15;;;;;;;0.53;0.53;;;;;12.70;95549.00;;;;5137709;27;20205;-59
2023/08/28 02:28:42;;;;;;;0.70;0.70;;;;;12.80;95541.00;;;;5137632;27;20193;-59
2023/08/28 02:31:10;;;;;;;2.67;0.97;;;;;12.90;95543.00;;;;5137372;27;20212;-59
2023/08/28 02:33:38;;;;;;;0.80;0.80;;;;;12.90;95556.00;;;;5135647;27;20585;-59
2023/08/28 02:36:06;;;;;;;0.60;0.60;;;;;12.80;95548.00;;;;5136737;27;20753;-59
2023/08/28 02:38:33;;;;;;;0.70;0.70;;;;;12.70;95551.00;;;;5136800;27;20200;-59
2023/08/28 02:41:05;;;;;;;0.70;0.70;;;;;12.70;95556.00;;;;5136684;27;20190;-60
2023/08/28 02:43:32;;;;;;;2.10;1.43;;;;;12.80;95544.00;;;;5136696;27;20242;-60
2023/08/28 02:46:00;;;;;;;0.70;0.70;;;;;12.70;95536.00;;;;5136616;27;20208;-60
2023/08/28 02:48:27;;;;;;;0.50;0.50;;;;;12.70;95540.00;;;;5136483;27;20193;-60
2023/08/28 02:50:56;;;;;;;0.60;0.60;;;;;12.80;95542.00;;;;5136577;27;20224;-60
2023/08/28 02:53:24;;;;;;;0.90;0.90;;;;;12.80;95551.00;;;;5135108;27;20212;-60
2023/08/28 02:56:10;;;;;;;1.03;1.03;;;;;12.80;95550.00;;;;5136059;27;20282;-59
2023/08/28 02:58:38;;;;;;;0.57;0.57;;;;;12.90;95559.00;;;;5136342;27;20200;-60
2023/08/28 03:01:05;;;;;;;0.73;0.73;;;;;12.90;95554.00;;;;5136488;27;20193;-59
2023/08/28 03:03:33;;;;;;;0.80;0.80;;;;;13.00;95551.00;;;;5136399;27;20194;-60
2023/08/28 03:06:02;;;;;;;0.70;0.70;;;;;13.00;95547.00;;;;5136451;27;20235;-60
2023/08/28 03:08:30;;;;;;;0.50;0.50;;;;;13.10;95542.00;;;;5136401;27;20196;-60
2023/08/28 03:10:57;;;;;;;0.60;0.60;;;;;13.10;95538.00;;;;5136036;27;20189;-60
2023/08/28 03:13:25;;;;;;;1.03;1.00;;;;;13.10;95529.00;;;;5136281;27;20216;-60
2023/08/28 03:15:52;;;;;;;0.53;0.53;;;;;12.90;95536.00;;;;5135890;27;20217;-60
2023/08/28 03:18:20;;;;;;;0.67;0.67;;;;;12.80;95532.00;;;;5136074;27;20197;-60
2023/08/28 03:20:47;;;;;;;0.63;0.63;;;;;12.70;95519.00;;;;5136101;27;20601;-60
2023/08/28 03:23:15;;;;;;;0.70;0.70;;;;;12.70;95527.00;;;;5136037;27;20197;-60
2023/08/28 03:25:43;;;;;;;0.50;0.50;;;;;12.80;95525.00;;;;5136009;27;20204;-60
2023/08/28 03:28:11;;;;;;;0.80;0.80;;;;;12.70;95514.00;;;;5136183;27;20608;-60
2023/08/28 03:30:39;;;;;;;0.73;0.73;;;;;12.80;95512.00;;;;5135734;27;20283;-60
2023/08/28 03:33:07;;;;;;;0.73;0.73;;;;;12.80;95516.00;;;;5135451;27;20201;-60
2023/08/28 03:35:34;;;;;;;0.60;0.60;;;;;12.90;95521.00;;;;5135390;27;20555;-59
2023/08/28 03:38:01;;;;;;;0.60;0.60;;;;;13.00;95512.00;;;;5134072;27;20217;-60
2023/08/28 03:40:30;;;;;;;0.73;0.73;;;;;12.90;95516.00;;;;5135379;27;20644;-60
2023/08/28 03:42:57;;;;;;;0.60;0.60;;;;;12.70;95515.00;;;;5135667;27;20648;-59
2023/08/28 03:45:25;;;;;;;0.50;0.50;;;;;12.80;95527.00;;;;5135483;27;20194;-60
2023/08/28 03:47:52;;;;;;;0.80;0.80;;;;;12.90;95521.00;;;;5135234;27;20270;-59
2023/08/28 03:50:20;;;;;;;0.60;0.60;;;;;12.80;95526.00;;;;5135235;27;20189;-59
2023/08/28 03:52:47;;;;;;;0.60;0.60;;;;;12.70;95524.00;;;;5135092;27;20193;-60
2023/08/28 03:55:14;;;;;;;0.50;0.50;;;;;12.70;95524.00;;;;5135186;27;20196;-60
2023/08/28 03:57:43;;;;;;;0.50;0.50;;;;;12.80;95532.00;;;;5135038;27;20228;-60
2023/08/28 04:00:13;;;;;;;0.70;0.70;;;;;12.70;95530.00;;;;5135143;27;20186;-60
2023/08/28 04:02:40;;;;;;;0.93;0.93;;;;;12.60;95540.00;;;;5135012;27;20192;-59
2023/08/28 04:05:08;;;;;;;0.73;0.73;;;;;12.60;95550.00;;;;5135089;27;20193;-59
2023/08/28 04:07:36;;;;;;;0.60;0.60;;;;;12.50;95542.00;;;;5134876;27;20213;-59
2023/08/28 04:10:03;;;;;;;0.40;0.40;;;;;12.60;95536.00;;;;5135156;27;20200;-59
2023/08/28 04:12:31;;;;;;;0.80;0.80;;;;;12.60;95535.00;;;;5134692;27;20189;-59
2023/08/28 04:15:00;;;;;;;0.70;0.70;;;;;12.60;95538.00;;;;5134777;27;20636;-59
2023/08/28 04:17:27;;;;;;;0.67;0.67;;;;;12.70;95532.00;;;;5135560;27;20270;-59
2023/08/28 04:19:56;;;;;;;0.50;0.50;;;;;12.70;95529.00;;;;5134687;27;20241;-59
2023/08/28 04:22:24;;;;;;;0.50;0.50;;;;;12.90;95530.00;;;;5134695;27;20663;-60
2023/08/28 04:24:53;;;;;;;0.70;0.70;;;;;12.90;95521.00;;;;5134602;27;20193;-59
2023/08/28 04:27:20;;;;;;;0.50;0.50;;;;;12.80;95514.00;;;;5134489;27;20668;-59
2023/08/28 04:29:47;;;;;;;0.60;0.60;;;;;12.80;95510.00;;;;5134206;27;20227;-59
2023/08/28 04:32:16;;;;;;;0.60;0.60;;;;;12.70;95502.00;;;;5134575;27;20276;-59
2023/08/28 04:34:44;;;;;;;0.60;0.60;;;;;12.80;95507.00;;;;5134508;27;20668;-59
2023/08/28 04:37:12;;;;;;;0.93;0.93;;;;;12.60;95509.00;;;;5134763;27;20217;-59
2023/08/28 04:39:39;;;;;;;1.00;1.00;;;;;12.50;95509.00;;;;5134421;27;20189;-59
2023/08/28 04:42:06;;;;;;;0.90;0.90;;;;;12.60;95505.00;;;;5134252;27;20660;-60
2023/08/28 04:44:34;;;;;;;0.60;0.60;;;;;12.50;95504.00;;;;5134280;27;20197;-59
2023/08/28 04:47:02;;;;;;;0.63;0.63;;;;;12.70;95482.00;;;;5134333;27;20209;-59
2023/08/28 04:49:30;;;;;;;1.20;1.20;;;;;12.70;95503.00;;;;5134251;27;20238;-59
2023/08/28 04:51:58;;;;;;;1.00;1.00;;;;;12.70;95504.00;;;;5133952;27;20193;-60
2023/08/28 04:54:25;;;;;;;0.60;0.60;;;;;12.70;95502.00;;;;5134516;27;20197;-59
2023/08/28 04:56:52;;;;;;;0.67;0.67;;;;;12.70;95509.00;;;;5134106;27;20584;-59
2023/08/28 04:59:20;;;;;;;0.80;0.80;;;;;12.70;95504.00;;;;5134697;27;20189;-59
2023/08/28 05:01:47;;;;;;;0.70;0.70;;;;;12.80;95497.00;;;;5134323;27;20185;-59
2023/08/28 05:04:14;;;;;;;0.97;0.97;;;;;12.80;95496.00;;;;5134394;27;20196;-60
2023/08/28 05:06:43;;;;;;;0.60;0.60;;;;;12.90;95498.00;;;;5134537;27;20263;-60
2023/08/28 05:09:11;;;;;;;1.00;1.00;;;;;12.80;95500.00;;;;5134115;28;20190;-59
2023/08/28 05:11:38;;;;;;;1.27;1.17;;;;;12.70;95501.00;;;;5133988;28;20503;-59
2023/08/28 05:14:06;;;;;;;1.00;1.00;;;;;12.70;95484.00;;;;5133945;28;20196;-59
2023/08/28 05:16:33;;;;;;;1.47;1.17;;;;;12.90;95490.00;;;;5133786;28;20270;-59
2023/08/28 05:19:00;;;;;;;1.03;1.03;;;;;12.80;95497.00;;;;5133967;28;20190;-60
2023/08/28 05:21:28;;;;;;;0.70;0.70;;;;;12.80;95490.00;;;;5134070;28;20193;-60
2023/08/28 05:23:56;;;;;;;0.60;0.60;;;;;12.70;95481.00;;;;5133840;28;20200;-60
2023/08/28 05:26:24;;;;;;;0.60;0.60;;;;;12.80;95487.00;;;;5132455;28;20217;-60
2023/08/28 05:28:51;;;;;;;0.70;0.70;;;;;12.90;95494.00;;;;5134182;28;20284;-60
2023/08/28 05:31:19;;;;;;;0.50;0.50;;;;;12.70;95487.00;;;;5133874;28;20186;-60
2023/08/28 05:33:46;;;;;;;1.00;1.00;;;;;12.80;95490.00;;;;5132502;28;20197;-60
2023/08/28 05:36:13;;;;;;;0.90;0.90;;;;;12.80;95492.00;;;;5133861;28;20318;-60
2023/08/28 05:38:41;;;;;;;0.70;0.70;;;;;12.90;95493.00;;;;5133802;28;20200;-60
2023/08/28 05:41:09;;;;;;;0.70;0.70;;;;;12.90;95497.00;;;;5135464;27;20189;-60
2023/08/28 05:43:37;;;;;;;1.10;1.00;;;;;12.90;95497.00;;;;5137858;27;20201;-60
2023/08/28 05:46:04;;;;;;;0.60;0.60;;;;;12.80;95500.00;;;;5137895;27;20214;-60
2023/08/28 05:48:31;;;;;;;0.97;0.97;;;;;12.80;95498.00;;;;5137880;27;20199;-60
2023/08/28 05:50:59;;;;;;;0.90;0.90;;;;;12.80;95499.00;;;;5137821;27;20204;-60
2023/08/28 05:53:26;;;;;;;0.67;0.67;;;;;12.70;95493.00;;;;5136598;27;20201;-60
2023/08/28 05:55:53;;;;;;;1.00;1.00;;;;;12.70;95491.00;;;;5138272;27;20672;-61
2023/08/28 05:58:22;;;;;;;0.90;0.90;;;;;12.70;95488.00;;;;5138398;27;20266;-60
2023/08/28 06:00:49;;;;;;;0.67;0.67;;;;;12.70;95484.00;;;;5138239;27;20186;-60
2023/08/28 06:03:17;;;;;;;0.90;0.90;;;;;12.60;95487.00;;;;5137979;27;20200;-60
2023/08/28 06:05:44;;;;;;;0.90;0.90;;;;;12.70;95481.00;;;;5137911;27;20540;-60
2023/08/28 06:08:12;;;;;;;1.57;1.47;;;;;12.70;95464.00;;;;5138198;27;20186;-60
2023/08/28 06:10:40;;;;;;;2.63;1.77;;;;;12.80;95469.00;;;;5137522;27;20239;-61
2023/08/28 06:13:08;;;;;;;0.77;0.77;;;;;12.80;95463.00;;;;5137840;27;20295;-60
2023/08/28 06:15:36;;;;;;;0.50;0.50;;;;;12.90;95449.00;;;;5137557;27;20193;-60
2023/08/28 06:18:05;;;;;;;0.73;0.73;;;;;12.80;95444.00;;;;5137599;27;20217;-60
2023/08/28 06:20:35;;;;;;;0.50;0.50;;;;;13.00;95440.00;;;;5137434;27;20193;-60
2023/08/28 06:23:02;;;;;;;0.70;0.70;;;;;12.90;95425.00;;;;5137122;27;20198;-59
2023/08/28 06:25:30;;;;;;;0.67;0.67;;;;;12.90;95435.00;;;;5137080;27;20196;-59
2023/08/28 06:27:58;;;;;;;0.90;0.90;;;;;12.90;95426.00;;;;5136797;27;20266;-59
2023/08/28 06:30:25;;;;;;;0.60;0.60;;;;;13.00;95418.00;;;;5137518;27;20257;-59
2023/08/28 06:32:54;;;;;;;0.90;0.90;;;;;12.90;95427.00;;;;5128563;27;20675;-60
2023/08/28 06:35:21;;;;;;;0.53;0.53;;;;;12.90;95437.00;;;;5132674;27;20204;-63
2023/08/28 06:37:50;;;;;;;0.60;0.60;;;;;13.00;95442.00;;;;5135250;27;20225;-63
2023/08/28 06:40:17;;;;;;;0.60;0.60;;;;;13.00;95438.00;;;;5134559;27;20189;-63
2023/08/28 06:42:44;;;;;;;0.93;0.93;;;;;13.10;95438.00;;;;5135256;27;20196;-62
2023/08/28 06:45:13;;;;;;;0.90;0.90;;;;;13.20;95425.00;;;;5135091;27;20194;-62
2023/08/28 06:47:40;;;;;;;0.70;0.70;;;;;13.30;95436.00;;;;5130279;27;20217;-61
2023/08/28 06:50:10;;;;;;;3.60;1.23;;;;;13.40;95425.00;;;;5131572;27;20660;-60
2023/08/28 06:52:38;;;;;;;0.73;0.73;;;;;13.60;95431.00;;;;5133986;27;20208;-60
2023/08/28 06:55:06;;;;;;;1.40;1.30;;;;;13.60;95431.00;;;;5134817;27;20514;-60
2023/08/28 06:57:33;;;;;;;0.60;0.60;;;;;13.60;95424.00;;;;5134113;27;20217;-60
2023/08/28 07:00:01;;;;;;;0.80;0.80;;;;;13.70;95425.00;;;;5134938;27;20216;-60
2023/08/28 07:02:30;;;;;;;0.60;0.60;;;;;13.80;95425.00;;;;5134014;27;20555;-59
2023/08/28 07:04:57;;;;;;;0.63;0.63;;;;;13.80;95417.00;;;;5134583;27;20201;-59
2023/08/28 07:07:26;;;;;;;0.50;0.50;;;;;13.90;95415.00;;;;5134151;27;20213;-59
2023/08/28 07:09:54;;;;;;;1.30;1.20;;;;;14.00;95410.00;;;;5134617;27;20207;-59
2023/08/28 07:12:21;;;;;;;0.70;0.70;;;;;14.00;95426.00;;;;5135029;27;20190;-59
2023/08/28 07:15:26;;;;;;;1.07;1.07;;;;;14.10;95451.00;;;;5134672;27;20198;-60
2023/08/28 07:17:53;;;;;;;0.70;0.70;;;;;14.00;95466.00;;;;5130707;27;20232;-60
2023/08/28 07:20:22;;;;;;;0.70;0.70;;;;;13.90;95466.00;;;;5133075;27;20688;-60
2023/08/28 07:22:53;;;;;;;0.53;0.53;;;;;14.00;95458.00;;;;5134581;27;20196;-60
2023/08/28 07:25:22;;;;;;;0.47;0.47;;;;;14.00;95459.00;;;;5134608;27;20355;-59
2023/08/28 07:27:50;;;;;;;0.73;0.73;;;;;14.10;95463.00;;;;5130911;27;20278;-59
2023/08/28 07:30:17;;;;;;;0.70;0.70;;;;;14.20;95462.00;;;;5131437;27;20197;-59
2023/08/28 07:32:45;;;;;;;0.90;0.90;;;;;14.20;95451.00;;;;5133223;27;20196;-60
2023/08/28 07:35:12;;;;;;;0.90;0.90;;;;;14.20;95442.00;;;;5133734;27;20197;-59
2023/08/28 07:37:40;;;;;;;1.23;0.90;;;;;14.30;95438.00;;;;5133710;27;20270;-59
2023/08/28 07:40:09;;;;;;;0.77;0.77;;;;;14.50;95428.00;;;;5134110;27;20594;-59
2023/08/28 07:42:37;;;;;;;3.40;1.37;;;;;14.60;95416.00;;;;5133790;27;20205;-59
2023/08/28 07:45:05;;;;;;;0.70;0.70;;;;;14.70;95423.00;;;;5133979;27;20225;-59
2023/08/28 07:47:33;;;;;;;0.73;0.73;;;;;14.70;95443.00;;;;5133185;27;20210;-59
2023/08/28 07:50:00;;;;;;;0.60;0.60;;;;;14.60;95438.00;;;;5133900;27;20197;-59
2023/08/28 07:52:28;;;;;;;1.47;0.77;;;;;14.60;95433.00;;;;5133058;27;20208;-59
2023/08/28 07:54:55;;;;;;;0.57;0.57;;;;;14.60;95430.00;;;;5132608;27;20299;-59
2023/08/28 07:57:24;;;;;;;0.60;0.60;;;;;14.40;95445.00;;;;5133205;27;20225;-59
2023/08/28 07:59:51;;;;;;;3.30;0.90;;;;;14.30;95444.00;;;;5133673;27;20202;-59
2023/08/28 08:02:19;;;;;;;0.73;0.73;;;;;14.10;95464.00;;;;5133450;27;20253;-61
2023/08/28 08:04:46;;;;;;;0.70;0.70;;;;;14.10;95464.00;;;;5132202;27;20216;-60
2023/08/28 08:07:14;;;;;;;0.67;0.67;;;;;14.00;95462.00;;;;5132950;27;20213;-60
2023/08/28 08:09:41;;;;;;;0.70;0.70;;;;;14.10;95460.00;;;;5132957;27;20564;-61
2023/08/28 08:12:09;;;;;;;1.13;1.13;;;;;14.10;95465.00;;;;5133136;27;20213;-60
2023/08/28 08:14:38;;;;;;;1.03;1.03;;;;;14.10;95469.00;;;;5133017;27;20201;-60
2023/08/28 08:17:05;;;;;;;0.70;0.70;;;;;14.10;95470.00;;;;5131675;27;20220;-60
2023/08/28 08:19:34;;;;;;;0.70;0.70;;;;;14.10;95466.00;;;;5132975;27;20201;-60
2023/08/28 08:22:02;;;;;;;0.60;0.60;;;;;14.10;95469.00;;;;5132881;27;20226;-60
2023/08/28 08:24:29;;;;;;;0.80;0.80;;;;;14.00;95480.00;;;;5133054;27;20221;-60
2023/08/28 08:26:57;;;;;;;0.97;0.97;;;;;14.10;95490.00;;;;5133310;27;20228;-59
2023/08/28 08:29:25;;;;;;;0.60;0.60;;;;;14.10;95498.00;;;;5132538;27;20262;-59
2023/08/28 08:31:53;;;;;;;0.60;0.60;;;;;14.20;95488.00;;;;5133537;27;20197;-59
2023/08/28 08:34:21;;;;;;;5.70;1.20;;;;;14.30;95487.00;;;;5132663;27;20233;-59
2023/08/28 08:36:48;;;;;;;3.17;1.07;;;;;14.30;95487.00;;;;5132857;27;20561;-59
2023/08/28 08:39:15;;;;;;;1.23;1.23;;;;;14.40;95480.00;;;;5132282;27;20572;-59
2023/08/28 08:41:44;;;;;;;1.10;1.10;;;;;14.50;95471.00;;;;5133099;27;20197;-60
2023/08/28 08:44:11;;;;;;;0.63;0.63;;;;;14.60;95463.00;;;;5132134;27;20216;-61
2023/08/28 08:46:41;;;;;;;0.90;0.90;;;;;14.40;95471.00;;;;5133137;27;20213;-60
2023/08/28 08:49:13;;;;;;;0.73;0.73;;;;;14.60;95478.00;;;;5127373;27;20238;-60
2023/08/28 08:51:43;;;;;;;0.83;0.83;;;;;14.60;95490.00;;;;5132132;27;20185;-60
2023/08/28 08:54:18;;;;;;;0.63;0.63;;;;;14.60;95484.00;;;;5132605;27;20225;-60
2023/08/28 08:56:49;;;;;;;0.97;0.97;;;;;14.80;95475.00;;;;5132229;27;20315;-60
2023/08/28 08:59:17;;;;;;;0.80;0.80;;;;;15.00;95474.00;;;;5131928;27;20209;-60
2023/08/28 09:01:44;;;;;;;0.50;0.50;;;;;15.10;95477.00;;;;5132624;27;20193;-60
2023/08/28 09:04:14;;;;;;;0.70;0.70;;;;;15.10;95484.00;;;;5131926;27;20201;-61
2023/08/28 09:06:43;;;;;;;0.90;0.90;;;;;15.20;95487.00;;;;5132930;27;20217;-59
2023/08/28 09:09:11;;;;;;;1.00;1.00;;;;;15.20;95491.00;;;;5132235;27;20193;-59
2023/08/28 09:11:40;;;;;;;1.00;1.00;;;;;15.40;95495.00;;;;5132487;28;20229;-59
2023/08/28 09:14:07;;;;;;;0.80;0.80;;;;;15.50;95484.00;;;;5132082;28;20250;-59
2023/08/28 09:16:35;;;;;;;1.37;0.87;;;;;15.50;95493.00;;;;5135876;27;20218;-59
2023/08/28 09:19:03;;;;;;;1.03;1.03;;;;;15.60;95494.00;;;;5136664;27;20262;-59
2023/08/28 09:21:39;;;;;;;1.50;1.40;;;;;15.50;95496.00;;;;5136748;27;20258;-59
2023/08/28 09:24:10;;;;;;;0.50;0.50;;;;;15.50;95502.00;;;;5135268;27;20250;-59
2023/08/28 09:26:39;;;;;;;0.83;0.83;;;;;15.60;95492.00;;;;5136647;27;20304;-59
2023/08/28 09:29:08;;;;;;;0.60;0.60;;;;;15.70;95482.00;;;;5135064;27;20276;-59
2023/08/28 09:31:37;;;;;;;0.77;0.77;;;;;15.60;95475.00;;;;5136097;27;20204;-59
2023/08/28 09:34:05;;;;;;;1.03;1.03;;;;;15.60;95480.00;;;;5135637;27;20664;-59
2023/08/28 09:36:36;;;;;;;0.80;0.80;;;;;15.70;95475.00;;;;5135782;27;20209;-59
2023/08/28 09:39:06;;;;;;;0.60;0.60;;;;;15.80;95482.00;;;;5136053;27;20200;-59
2023/08/28 09:41:44;;;;;;;0.60;0.60;;;;;16.00;95460.00;;;;5134122;27;20664;-59
2023/08/28 09:44:12;;;;;;;5.10;1.10;;;;;16.10;95468.00;;;;5136057;27;20201;-59
2023/08/28 09:46:39;;;;;;;1.07;1.07;;;;;16.20;95454.00;;;;5135757;27;20228;-59
2023/08/28 09:49:09;;;;;;;0.67;0.67;;;;;16.40;95437.00;;;;5135829;27;20610;-59
2023/08/28 09:51:43;;;;;;;1.23;0.93;;;;;16.40;95435.00;;;;5135799;27;20189;-59
2023/08/28 09:54:11;;;;;;;2.40;1.87;;;;;16.40;95427.00;;;;5135632;27;20588;-59
2023/08/28 09:56:39;;;;;;;0.87;0.87;;;;;16.70;95437.00;;;;5135467;27;20249;-59
2023/08/28 09:59:07;;;;;;;1.10;1.10;;;;;16.60;95420.00;;;;5135495;27;20575;-59
2023/08/28 10:01:36;;;;;;;0.57;0.57;;;;;16.60;95416.00;;;;5136329;27;20608;-59
2023/08/28 10:04:07;;;;;;;0.67;0.67;;;;;16.60;95412.00;;;;5135618;27;20205;-59
2023/08/28 10:06:36;;;;;;;0.70;0.70;;;;;16.80;95409.00;;;;5135795;27;20564;-59
2023/08/28 10:09:08;;;;;;;0.77;0.77;;;;;16.90;95417.00;;;;5135652;27;20620;-59
2023/08/28 10:11:39;;;;;;;0.80;0.80;;;;;16.90;95418.00;;;;5134057;27;20197;-59
2023/08/28 10:14:07;;;;;;;0.60;0.60;;;;;16.90;95415.00;;;;5135301;27;20653;-59
2023/08/28 10:16:37;;;;;;;0.70;0.70;;;;;17.10;95413.00;;;;5135393;27;20216;-60
2023/08/28 10:19:16;;;;;;;1.10;1.10;;;;;17.10;95425.00;;;;5133910;27;20857;-60
2023/08/28 10:21:45;;;;;;;0.70;0.70;;;;;17.20;95417.00;;;;5134181;27;20547;-60
2023/08/28 10:24:16;;;;;;;0.40;0.40;;;;;17.30;95420.00;;;;5135162;27;20198;-60
2023/08/28 10:26:44;;;;;;;0.70;0.70;;;;;17.40;95420.00;;;;5134572;27;20218;-59
2023/08/28 10:29:12;;;;;;;1.73;1.50;;;;;17.60;95419.00;;;;5133910;27;20193;-59
2023/08/28 10:31:42;;;;;;;0.80;0.80;;;;;17.60;95417.00;;;;5130536;27;20200;-59
2023/08/28 10:34:10;;;;;;;5.30;1.27;;;;;17.80;95416.00;;;;5134971;27;20216;-59
2023/08/28 10:36:38;;;;;;;0.60;0.60;;;;;17.70;95412.00;;;;5135264;27;20209;-59
2023/08/28 10:39:08;;;;;;;1.07;1.07;;;;;17.70;95406.00;;;;5134830;27;20692;-59
2023/08/28 10:41:39;;;;;;;2.33;0.97;;;;;17.80;95406.00;;;;5134748;27;20243;-59
2023/08/28 10:44:08;;;;;;;0.77;0.77;;;;;17.70;95404.00;;;;5134655;27;20187;-59
2023/08/28 10:46:36;;;;;;;0.97;0.60;;;;;17.70;95404.00;;;;5134804;27;20213;-59
2023/08/28 10:49:06;;;;;;;0.60;0.60;;;;;17.80;95394.00;;;;5135021;27;20212;-59
2023/08/28 10:51:35;;;;;;;1.07;1.07;;;;;17.80;95395.00;;;;5133521;27;20193;-63
2023/08/28 10:54:04;;;;;;;0.70;0.70;;;;;17.90;95389.00;;;;5134672;27;20219;-63
2023/08/28 10:56:33;;;;;;;1.00;1.00;;;;;18.00;95380.00;;;;5134209;27;20374;-63
2023/08/28 10:59:27;;;;;;;0.50;0.50;;;;;18.10;95378.00;;;;5134877;27;20225;-62
2023/08/28 11:01:56;;;;;;;0.50;0.50;;;;;17.90;95371.00;;;;5131054;27;20277;-60
2023/08/28 11:04:25;;;;;;;0.60;0.60;;;;;18.10;95371.00;;;;5133364;27;20205;-61
2023/08/28 11:06:52;;;;;;;0.57;0.57;;;;;18.20;95372.00;;;;5133789;27;20213;-61
2023/08/28 11:09:33;;;;;;;0.53;0.53;;;;;18.20;95376.00;;;;5134684;27;20204;-61
2023/08/28 11:12:28;;;;;;;0.50;0.50;;;;;18.20;95381.00;;;;5133468;27;20554;-61
2023/08/28 11:15:03;;;;;;;0.70;0.70;;;;;18.50;95384.00;;;;5134216;27;20230;-60
2023/08/28 11:17:34;;;;;;;0.70;0.70;;;;;18.40;95390.00;;;;5134014;27;20704;-60
2023/08/28 11:20:07;;;;;;;0.50;0.50;;;;;18.50;95391.00;;;;5133702;27;20706;-60
2023/08/28 11:22:37;;;;;;;0.80;0.80;;;;;18.60;95380.00;;;;5129966;27;20192;-60
2023/08/28 11:25:07;;;;;;;0.70;0.70;;;;;18.50;95381.00;;;;5129540;27;20200;-60
2023/08/28 11:27:46;;;;;;;0.40;0.40;;;;;18.50;95382.00;;;;5133929;27;20288;-60
2023/08/28 11:30:16;;;;;;;0.70;0.70;;;;;18.50;95387.00;;;;5134439;27;20192;-61
2023/08/28 11:32:45;;;;;;;0.50;0.50;;;;;18.60;95376.00;;;;5133863;27;20272;-60
2023/08/28 11:35:15;;;;;;;2.37;1.10;;;;;18.60;95383.00;;;;5133907;27;20208;-60
2023/08/28 11:37:44;;;;;;;0.67;0.67;;;;;18.40;95385.00;;;;5133761;27;20248;-60
2023/08/28 11:40:17;;;;;;;0.80;0.80;;;;;18.10;95393.00;;;;5133521;27;20219;-61
2023/08/28 11:42:46;;;;;;;0.70;0.70;;;;;18.10;95389.00;;;;5133754;27;20270;-60
2023/08/28 11:45:20;;;;;;;0.60;0.60;;;;;17.90;95381.00;;;;5133782;27;20250;-60
2023/08/28 11:47:47;;;;;;;0.57;0.57;;;;;18.00;95375.00;;;;5129476;27;20209;-61
2023/08/28 11:50:17;;;;;;;2.73;0.77;;;;;18.10;95368.00;;;;5133527;27;20185;-60
2023/08/28 11:52:48;;;;;;;0.50;0.50;;;;;18.30;95371.00;;;;5133438;27;20200;-60
2023/08/28 11:55:16;;;;;;;0.67;0.67;;;;;18.40;95375.00;;;;5133688;27;20200;-60
2023/08/28 11:57:45;;;;;;;1.70;1.33;;;;;18.40;95370.00;;;;5133416;27;20213;-60
2023/08/28 12:00:16;;;;;;;0.50;0.50;;;;;18.20;95379.00;;;;5133449;27;20209;-61
2023/08/28 12:02:44;;;;;;;0.60;0.60;;;;;18.20;95374.00;;;;5133499;27;20269;-61
2023/08/28 12:05:12;;;;;;;0.80;0.80;;;;;18.10;95393.00;;;;5133048;27;20201;-60
2023/08/28 12:07:44;;;;;;;0.83;0.83;;;;;18.10;95388.00;;;;5133083;27;20303;-60
2023/08/28 12:10:12;;;;;;;0.50;0.50;;;;;18.00;95385.00;;;;5133282;27;20720;-60
2023/08/28 12:12:40;;;;;;;0.70;0.70;;;;;18.00;95382.00;;;;5132118;27;20209;-60
2023/08/28 12:15:09;;;;;;;2.17;0.70;;;;;18.10;95386.00;;;;5133020;27;20212;-60
2023/08/28 12:17:38;;;;;;;1.10;1.10;;;;;18.10;95396.00;;;;5133131;27;20634;-60
2023/08/28 12:20:17;;;;;;;8.50;1.30;;;;;18.10;95384.00;;;;5131483;27;20224;-60
2023/08/28 12:22:45;;;;;;;0.40;0.40;;;;;17.90;95386.00;;;;5128273;27;20185;-61
2023/08/28 12:25:13;;;;;;;0.43;0.43;;;;;17.90;95383.00;;;;5128237;27;20196;-61
2023/08/28 12:27:40;;;;;;;0.67;0.67;;;;;17.90;95387.00;;;;5132882;27;20220;-60